Time;durP1;ratioP1;P1;durP2;ratioP2;P2;SDS_P1;SDS_P2;PMS_P1;PMS_P2;Temp;Humidity;BMP_temperature;BMP_pressure;BME280_temperature;BME280_humidity;BME280_pressure;Samples;Min_cycle;Max_cycle;Signal;HPM_P1;HPM_P2
2021/06/17 00:00:29;;;;;;;8.82;8.02;;;;;;;20.37;67.32;100406.25;5113273;27;20023;-51
2021/06/17 00:02:56;;;;;;;10.77;8.07;;;;;;;20.34;67.15;100401.09;5110339;27;20042;-48
2021/06/17 00:05:23;;;;;;;9.70;7.57;;;;;;;20.48;66.40;100399.53;5105686;27;20399;-49
2021/06/17 00:07:50;;;;;;;8.60;7.70;;;;;;;20.21;67.34;100400.84;5091974;27;20593;-48
2021/06/17 00:10:25;;;;;;;8.57;7.68;;;;;;;20.51;66.33;100399.41;5128196;27;20047;-49
2021/06/17 00:12:52;;;;;;;8.50;7.70;;;;;;;20.44;66.24;100396.19;5116117;27;20062;-49
2021/06/17 00:15:19;;;;;;;8.70;7.72;;;;;;;20.55;66.45;100399.16;5131731;27;20031;-51
2021/06/17 00:17:46;;;;;;;11.07;8.02;;;;;;;20.48;65.89;100391.56;5127574;27;20530;-49
2021/06/17 00:20:13;;;;;;;9.50;7.95;;;;;;;20.35;66.50;100396.63;5131487;27;20050;-49
2021/06/17 00:22:39;;;;;;;8.70;7.43;;;;;;;20.67;64.74;100391.50;5121873;27;20053;-49
2021/06/17 00:25:06;;;;;;;8.90;7.97;;;;;;;20.60;65.88;100388.28;5123611;27;20046;-51
2021/06/17 00:27:31;;;;;;;9.20;8.30;;;;;;;20.48;65.29;100380.94;5129078;27;20036;-50
2021/06/17 00:29:57;;;;;;;8.27;7.47;;;;;;;20.77;63.80;100381.28;5127512;27;20035;-48
2021/06/17 00:32:23;;;;;;;10.10;9.00;;;;;;;20.67;63.88;100388.84;5126658;27;20034;-49
2021/06/17 00:34:48;;;;;;;9.00;8.05;;;;;;;20.80;63.78;100382.00;5127233;27;20211;-53
2021/06/17 00:37:15;;;;;;;9.63;8.48;;;;;;;20.81;62.89;100377.53;5127897;27;20505;-49
2021/06/17 00:39:41;;;;;;;9.38;7.68;;;;;;;20.67;62.99;100387.06;5125722;27;20022;-49
2021/06/17 00:42:07;;;;;;;9.68;7.38;;;;;;;20.67;63.19;100381.75;5128710;27;20061;-49
2021/06/17 00:44:33;;;;;;;9.10;7.32;;;;;;;20.78;62.66;100377.69;5127068;27;20034;-50
2021/06/17 00:47:00;;;;;;;9.02;7.45;;;;;;;20.70;62.60;100371.00;5105550;27;20038;-49
2021/06/17 00:49:27;;;;;;;8.57;7.38;;;;;;;20.79;61.64;100368.78;5125191;27;20098;-52
2021/06/17 00:51:53;;;;;;;9.57;7.10;;;;;;;20.98;61.69;100371.34;5110687;27;20022;-50
2021/06/17 00:54:31;;;;;;;8.63;7.07;;;;;;;21.18;60.36;100364.94;5136974;27;20046;-48
2021/06/17 00:57:08;;;;;;;8.15;7.30;;;;;;;21.20;60.61;100357.78;5104868;27;20718;-49
2021/06/17 00:59:35;;;;;;;7.82;6.97;;;;;;;21.13;60.12;100364.34;5127468;27;20045;-48
2021/06/17 01:02:01;;;;;;;8.30;7.50;;;;;;;21.03;61.20;100361.31;5123175;27;20346;-51
2021/06/17 01:04:27;;;;;;;9.05;7.20;;;;;;;20.98;60.62;100364.22;5121268;27;20122;-49
2021/06/17 01:06:54;;;;;;;8.18;7.15;;;;;;;21.09;60.07;100351.22;5126667;27;20035;-53
2021/06/17 01:09:32;;;;;;;8.93;7.10;;;;;;;21.34;60.08;100349.88;5127581;27;20034;-49
2021/06/17 01:12:09;;;;;;;8.57;7.13;;;;;;;21.30;60.01;100356.31;5122001;27;20081;-49
2021/06/17 01:14:45;;;;;;;7.22;6.55;;;;;;;21.28;59.48;100350.25;5121489;27;20069;-50
2021/06/17 01:17:13;;;;;;;8.05;6.85;;;;;;;21.26;59.38;100350.28;5125983;27;20038;-52
2021/06/17 01:20:11;;;;;;;7.38;6.68;;;;;;;21.15;59.97;100346.53;5123461;27;20043;-48
2021/06/17 01:22:51;;;;;;;7.63;6.82;;;;;;;21.20;59.47;100344.47;5126470;27;20607;-50
2021/06/17 01:25:55;;;;;;;7.25;6.55;;;;;;;21.28;59.88;100344.91;5126652;27;20449;-50
2021/06/17 01:28:22;;;;;;;7.60;6.60;;;;;;;21.20;59.40;100344.47;5130675;27;20402;-49
2021/06/17 01:31:05;;;;;;;7.47;6.75;;;;;;;21.23;60.25;100347.81;5110776;27;20648;-48
2021/06/17 01:33:38;;;;;;;8.35;6.50;;;;;;;21.23;60.00;100345.16;5121915;27;20117;-48
2021/06/17 01:36:15;;;;;;;6.97;6.30;;;;;;;21.35;58.78;100346.28;5112657;27;20492;-50
2021/06/17 01:38:42;;;;;;;7.55;6.70;;;;;;;21.34;58.59;100355.22;5124829;27;20030;-49
2021/06/17 01:41:10;;;;;;;7.43;6.72;;;;;;;21.35;58.64;100350.72;5120061;27;20146;-49
2021/06/17 01:43:37;;;;;;;8.80;6.43;;;;;;;21.28;59.10;100355.56;5123449;27;20023;-49
2021/06/17 01:46:04;;;;;;;6.80;6.10;;;;;;;21.34;59.20;100363.19;5122367;27;20042;-49
2021/06/17 01:48:31;;;;;;;7.70;6.40;;;;;;;21.31;58.93;100358.03;5132016;27;20039;-52
2021/06/17 01:50:57;;;;;;;8.10;6.75;;;;;;;21.04;60.02;100366.53;5123693;27;20038;-49
2021/06/17 01:53:24;;;;;;;7.57;6.78;;;;;;;21.08;59.80;100360.13;5119954;27;20038;-50
2021/06/17 01:55:56;;;;;;;7.32;6.63;;;;;;;21.12;59.37;100362.63;5128092;27;20045;-49
2021/06/17 01:58:22;;;;;;;10.30;6.82;;;;;;;21.06;59.43;100359.34;5122967;27;20038;-49
2021/06/17 02:00:50;;;;;;;7.70;6.30;;;;;;;21.03;59.82;100367.50;5124074;27;20043;-49
2021/06/17 02:03:17;;;;;;;8.10;6.47;;;;;;;20.92;59.82;100361.88;5132713;27;20049;-49
2021/06/17 02:05:44;;;;;;;7.65;6.40;;;;;;;20.81;60.32;100361.59;5108467;27;20629;-51
2021/06/17 02:08:11;;;;;;;7.90;6.80;;;;;;;20.88;60.56;100363.00;5125055;27;20043;-50
2021/06/17 02:10:38;;;;;;;7.28;6.30;;;;;;;20.71;60.87;100359.44;5126874;27;20068;-52
2021/06/17 02:13:05;;;;;;;6.67;5.93;;;;;;;20.83;61.01;100355.25;5127570;27;20091;-49
2021/06/17 02:15:33;;;;;;;8.68;6.97;;;;;;;20.66;60.68;100355.25;5123841;27;20038;-48
2021/06/17 02:17:59;;;;;;;7.07;6.38;;;;;;;20.66;61.00;100352.59;5131429;27;20031;-48
2021/06/17 02:20:26;;;;;;;6.95;6.25;;;;;;;20.63;61.23;100358.06;5119119;27;20091;-50
2021/06/17 02:23:00;;;;;;;10.63;6.97;;;;;;;20.50;60.93;100353.38;5107210;27;20046;-49
2021/06/17 02:25:28;;;;;;;7.40;6.60;;;;;;;20.37;62.04;100345.19;5126212;27;20097;-50
2021/06/17 02:28:06;;;;;;;7.07;6.38;;;;;;;20.40;62.75;100347.69;5128417;27;20039;-51
2021/06/17 02:30:36;;;;;;;7.47;6.70;;;;;;;20.37;61.86;100350.50;5129147;27;20084;-50
2021/06/17 02:33:05;;;;;;;7.63;6.72;;;;;;;20.36;62.17;100351.44;5122719;27;20503;-52
2021/06/17 02:35:31;;;;;;;8.10;6.60;;;;;;;20.24;62.05;100342.31;5124100;27;20288;-52
2021/06/17 02:38:01;;;;;;;7.53;6.72;;;;;;;20.34;62.25;100336.50;5114555;27;20463;-50
2021/06/17 02:40:30;;;;;;;7.30;6.60;;;;;;;20.28;62.72;100342.13;5106702;27;20030;-49
2021/06/17 02:42:56;;;;;;;7.22;6.47;;;;;;;20.22;62.06;100338.00;5127728;27;20655;-50
2021/06/17 02:45:28;;;;;;;7.43;6.40;;;;;;;20.30;62.69;100335.81;5128313;27;20062;-49
2021/06/17 02:47:54;;;;;;;6.97;6.25;;;;;;;20.31;61.88;100339.31;5125097;27;20039;-50
2021/06/17 02:50:20;;;;;;;6.88;6.18;;;;;;;20.18;62.17;100347.91;5131097;27;20050;-50
2021/06/17 02:52:46;;;;;;;7.45;6.30;;;;;;;20.19;62.22;100346.13;5132771;27;20042;-50
2021/06/17 02:55:13;;;;;;;7.70;6.63;;;;;;;20.16;62.35;100349.78;5128475;27;20121;-49
2021/06/17 02:57:57;;;;;;;7.28;5.90;;;;;;;20.28;61.87;100345.63;5126797;27;20301;-49
2021/06/17 03:00:27;;;;;;;6.60;5.95;;;;;;;20.26;62.50;100342.22;5132198;27;21471;-48
2021/06/17 03:03:03;;;;;;;7.28;6.57;;;;;;;20.37;61.94;100349.66;5129080;27;20292;-49
2021/06/17 03:05:35;;;;;;;7.65;6.57;;;;;;;20.31;62.11;100355.25;5127039;27;20046;-48
2021/06/17 03:08:26;;;;;;;9.77;6.85;;;;;;;20.38;61.46;100354.88;5089656;27;20031;-50
2021/06/17 03:10:55;;;;;;;7.25;6.55;;;;;;;20.38;62.65;100352.22;5131143;27;20046;-49
2021/06/17 03:13:23;;;;;;;6.70;5.95;;;;;;;20.38;61.61;100356.66;5109390;27;20058;-49
2021/06/17 03:15:51;;;;;;;8.45;6.55;;;;;;;20.34;61.66;100348.00;5092652;27;20456;-50
2021/06/17 03:18:19;;;;;;;7.18;6.45;;;;;;;20.37;61.87;100354.97;5087231;27;20101;-48
2021/06/17 03:20:45;;;;;;;7.27;6.03;;;;;;;20.30;61.98;100357.06;5115057;27;20176;-50
2021/06/17 03:23:18;;;;;;;7.13;6.43;;;;;;;20.28;63.52;100352.75;5110914;27;20534;-48
2021/06/17 03:25:50;;;;;;;9.57;6.10;;;;;;;20.22;62.21;100351.28;5119460;27;20031;-49
2021/06/17 03:28:17;;;;;;;8.13;6.38;;;;;;;20.18;62.56;100358.50;5116921;27;20043;-50
2021/06/17 03:30:47;;;;;;;7.43;6.28;;;;;;;20.33;61.67;100356.06;5124438;27;20738;-51
2021/06/17 03:33:14;;;;;;;8.45;6.20;;;;;;;20.29;62.02;100359.78;5125879;27;21479;-48
2021/06/17 03:35:40;;;;;;;6.82;6.05;;;;;;;20.19;63.12;100356.75;5120747;27;20027;-48
2021/06/17 03:38:08;;;;;;;8.65;6.55;;;;;;;20.15;62.77;100358.69;5114128;27;20159;-49
2021/06/17 03:40:36;;;;;;;7.40;6.20;;;;;;;20.13;62.95;100354.38;5096224;27;20103;-50
2021/06/17 03:43:04;;;;;;;8.52;6.32;;;;;;;20.03;64.27;100364.59;5101467;27;20066;-48
2021/06/17 03:45:31;;;;;;;9.13;6.65;;;;;;;20.04;63.16;100371.63;5111507;27;20041;-50
2021/06/17 03:47:57;;;;;;;7.40;6.07;;;;;;;19.92;64.29;100367.75;5115108;27;20813;-48
2021/06/17 03:50:25;;;;;;;7.07;6.38;;;;;;;19.81;65.08;100370.91;5117008;27;20051;-51
2021/06/17 03:52:54;;;;;;;7.60;6.53;;;;;;;19.74;65.41;100372.13;5102999;27;20479;-52
2021/06/17 03:55:20;;;;;;;7.53;6.72;;;;;;;19.74;65.94;100375.66;5102055;27;20437;-49
2021/06/17 03:57:48;;;;;;;7.70;6.80;;;;;;;19.68;65.63;100365.31;5106376;27;20039;-52
2021/06/17 04:00:14;;;;;;;7.10;6.05;;;;;;;19.65;66.77;100365.47;5129809;27;20088;-48
2021/06/17 04:02:41;;;;;;;8.60;6.50;;;;;;;19.76;66.12;100369.38;5108511;27;20073;-52
2021/06/17 04:05:08;;;;;;;6.75;6.05;;;;;;;19.80;65.22;100363.03;5077192;27;20031;-49
2021/06/17 04:07:37;;;;;;;9.82;6.13;;;;;;;19.76;64.53;100372.03;5106415;27;20063;-48
2021/06/17 04:10:05;;;;;;;7.40;6.55;;;;;;;19.79;64.46;100372.78;5109186;27;20035;-50
2021/06/17 04:12:31;;;;;;;6.80;5.97;;;;;;;19.87;64.82;100367.13;5093714;27;20106;-48
2021/06/17 04:14:59;;;;;;;7.03;6.25;;;;;;;19.93;63.97;100380.09;5110670;27;20085;-49
2021/06/17 04:17:31;;;;;;;8.20;6.10;;;;;;;19.90;65.46;100372.28;5108813;27;20450;-51
2021/06/17 04:19:59;;;;;;;7.38;5.82;;;;;;;19.95;64.10;100374.72;5078355;27;20043;-49
2021/06/17 04:22:27;;;;;;;6.80;5.53;;;;;;;19.97;64.69;100368.41;5128781;27;20494;-50
2021/06/17 04:25:01;;;;;;;7.05;5.80;;;;;;;20.07;63.09;100374.97;5111794;27;20069;-48
2021/06/17 04:27:28;;;;;;;8.90;6.00;;;;;;;20.19;62.32;100364.69;5106365;27;20530;-49
2021/06/17 04:29:55;;;;;;;7.65;5.65;;;;;;;20.29;61.46;100368.59;5111764;27;20038;-51
2021/06/17 04:32:21;;;;;;;6.93;6.10;;;;;;;20.32;62.91;100363.13;5122724;27;20503;-50
2021/06/17 04:34:50;;;;;;;7.25;5.85;;;;;;;20.28;63.17;100358.91;5087672;27;20468;-52
2021/06/17 04:37:22;;;;;;;7.60;6.03;;;;;;;20.30;63.67;100359.72;5073707;27;20035;-52
2021/06/17 04:39:48;;;;;;;8.38;5.95;;;;;;;20.34;63.03;100350.66;5128753;27;20103;-48
2021/06/17 04:42:14;;;;;;;7.72;5.80;;;;;;;20.34;63.63;100353.31;5089997;27;20536;-48
2021/06/17 04:44:44;;;;;;;6.85;6.07;;;;;;;20.39;62.85;100359.25;5112139;27;20200;-50
2021/06/17 04:47:11;;;;;;;6.97;5.95;;;;;;;20.48;61.49;100362.34;5122990;27;20119;-49
2021/06/17 04:49:38;;;;;;;7.03;5.90;;;;;;;20.49;62.12;100367.63;5121076;27;20399;-52
2021/06/17 04:52:07;;;;;;;7.38;5.45;;;;;;;20.53;62.00;100373.59;5127154;27;20515;-50
2021/06/17 04:54:33;;;;;;;7.63;5.40;;;;;;;20.53;62.57;100365.63;5072483;27;20030;-50
2021/06/17 04:56:59;;;;;;;6.53;5.82;;;;;;;20.84;62.34;100356.97;5123492;27;20050;-50
2021/06/17 04:59:25;;;;;;;7.72;5.90;;;;;;;20.76;62.12;100361.84;5106954;27;20084;-51
2021/06/17 05:01:51;;;;;;;6.85;5.78;;;;;;;20.85;60.26;100363.13;5103421;27;20049;-49
2021/06/17 05:04:18;;;;;;;7.63;6.22;;;;;;;20.91;59.81;100368.16;5089476;27;21065;-49
2021/06/17 05:06:54;;;;;;;6.63;5.68;;;;;;;20.95;60.40;100367.06;5108313;27;20444;-51
2021/06/17 05:12:05;;;;;;;6.28;5.13;;;;;;;21.02;61.14;100376.41;5100888;27;20046;-51
2021/06/17 05:14:30;;;;;;;5.72;4.95;;;;;;;21.05;60.70;100364.75;5075709;27;20039;-49
2021/06/17 05:16:56;;;;;;;6.82;5.50;;;;;;;21.30;60.71;100364.28;5069390;27;20042;-48
2021/06/17 05:19:22;;;;;;;7.35;5.40;;;;;;;21.20;59.99;100363.94;5104418;27;20041;-49
2021/06/17 05:21:48;;;;;;;8.43;5.97;;;;;;;21.34;59.58;100373.81;5085409;27;20435;-49
2021/06/17 05:24:13;;;;;;;7.93;5.68;;;;;;;21.40;60.17;100378.78;5102636;27;20411;-52
2021/06/17 05:26:39;;;;;;;7.22;5.50;;;;;;;21.62;58.83;100377.66;5104309;27;20055;-50
2021/06/17 05:29:05;;;;;;;8.02;5.95;;;;;;;22.01;56.84;100373.66;5099739;27;20567;-50
2021/06/17 05:31:31;;;;;;;7.57;5.50;;;;;;;21.93;57.28;100381.22;5086626;27;20046;-51
2021/06/17 05:33:57;;;;;;;7.10;5.22;;;;;;;21.83;57.25;100382.72;5106067;27;20568;-51
2021/06/17 05:36:22;;;;;;;7.93;5.35;;;;;;;21.92;56.82;100384.88;5087333;27;20511;-50
2021/06/17 05:38:51;;;;;;;7.78;5.10;;;;;;;22.08;56.64;100379.50;5085767;27;20027;-50
2021/06/17 05:41:17;;;;;;;7.85;5.38;;;;;;;22.64;54.31;100377.16;5099386;27;20038;-48
2021/06/17 05:43:42;;;;;;;7.15;5.30;;;;;;;22.91;53.17;100373.78;5107972;27;20062;-48
2021/06/17 05:46:08;;;;;;;5.93;5.32;;;;;;;22.53;55.33;100382.28;5072867;27;20111;-51
2021/06/17 05:48:35;;;;;;;7.60;5.70;;;;;;;22.83;53.40;100386.72;5102323;27;20076;-47
2021/06/17 05:51:02;;;;;;;6.30;5.18;;;;;;;22.99;53.88;100384.81;5108303;27;20047;-48
2021/06/17 05:53:27;;;;;;;6.25;5.30;;;;;;;22.81;54.33;100396.63;5103899;27;20098;-48
2021/06/17 05:55:53;;;;;;;8.43;5.55;;;;;;;22.67;54.46;100390.31;5104530;27;20051;-48
2021/06/17 05:58:19;;;;;;;6.43;5.25;;;;;;;22.69;54.00;100401.72;5101152;27;20091;-48
2021/06/17 06:00:45;;;;;;;6.00;5.03;;;;;;;23.02;53.25;100384.63;5101270;27;20031;-50
2021/06/17 06:03:11;;;;;;;5.95;5.32;;;;;;;23.04;53.08;100390.75;5105677;27;20394;-49
2021/06/17 06:05:37;;;;;;;6.25;5.50;;;;;;;23.22;52.81;100387.91;5101800;27;21044;-50
2021/06/17 06:08:11;;;;;;;5.88;5.22;;;;;;;23.27;52.63;100394.69;5104806;27;20050;-50
2021/06/17 06:10:38;;;;;;;6.03;5.18;;;;;;;23.23;53.02;100386.97;5105954;27;20051;-50
2021/06/17 06:13:04;;;;;;;7.75;5.45;;;;;;;23.60;51.60;100390.81;5099656;27;20518;-49
2021/06/17 06:15:33;;;;;;;8.35;5.30;;;;;;;23.59;51.44;100390.94;5101221;27;20031;-50
2021/06/17 06:18:06;;;;;;;9.32;5.43;;;;;;;24.17;49.40;100388.13;5076877;27;20043;-49
2021/06/17 06:20:33;;;;;;;7.68;5.47;;;;;;;24.00;50.67;100389.25;5101055;27;20050;-49
2021/06/17 06:22:58;;;;;;;7.90;5.32;;;;;;;24.18;49.80;100387.19;5104120;27;20035;-51
2021/06/17 06:25:24;;;;;;;7.30;5.43;;;;;;;24.26;49.67;100398.22;5104045;27;20039;-51
2021/06/17 06:27:52;;;;;;;7.75;5.05;;;;;;;24.23;49.62;100401.94;5103343;27;20050;-49
2021/06/17 06:30:18;;;;;;;6.88;5.68;;;;;;;24.19;49.79;100405.78;5103709;27;20156;-49
2021/06/17 06:32:43;;;;;;;6.70;5.45;;;;;;;24.57;48.40;100404.16;5095061;27;20085;-49
2021/06/17 06:35:09;;;;;;;6.22;5.07;;;;;;;24.28;49.61;100412.31;5095389;27;20043;-52
2021/06/17 06:37:39;;;;;;;7.60;5.18;;;;;;;24.46;49.17;100405.72;5103576;27;20042;-49
2021/06/17 06:40:06;;;;;;;7.15;5.22;;;;;;;24.36;49.86;100406.47;5123041;27;20042;-49
2021/06/17 06:42:33;;;;;;;6.18;5.15;;;;;;;24.64;49.09;100397.47;5101451;27;20106;-50
2021/06/17 06:44:58;;;;;;;6.80;5.20;;;;;;;24.91;48.07;100409.88;5105842;27;20528;-51
2021/06/17 06:47:24;;;;;;;9.38;5.25;;;;;;;24.75;49.03;100400.25;5084262;27;20026;-47
2021/06/17 06:49:50;;;;;;;7.03;5.03;;;;;;;24.67;49.31;100402.59;5070625;27;20107;-49
2021/06/17 06:52:16;;;;;;;6.72;5.22;;;;;;;25.05;48.99;100408.97;5105069;27;20043;-47
2021/06/17 06:54:41;;;;;;;7.20;5.35;;;;;;;25.33;46.94;100407.88;5108619;27;20043;-46
2021/06/17 06:57:07;;;;;;;6.65;5.30;;;;;;;25.39;47.08;100409.28;5111806;27;20062;-48
2021/06/17 06:59:33;;;;;;;6.38;5.32;;;;;;;25.15;48.03;100408.19;5102815;27;20039;-48
2021/06/17 07:01:59;;;;;;;6.93;5.32;;;;;;;25.06;49.77;100407.97;5100441;27;20043;-49
2021/06/17 07:04:27;;;;;;;8.38;5.47;;;;;;;25.08;49.21;100409.59;5088178;27;20501;-48
2021/06/17 07:06:52;;;;;;;8.73;5.60;;;;;;;25.28;47.93;100413.53;5105986;27;20377;-47
2021/06/17 07:09:18;;;;;;;8.57;5.38;;;;;;;25.51;46.14;100410.22;5104990;27;20590;-49
2021/06/17 07:11:45;;;;;;;6.05;5.18;;;;;;;25.57;46.83;100420.47;5086576;27;20058;-50
2021/06/17 07:14:11;;;;;;;5.88;5.28;;;;;;;25.64;47.23;100435.13;5097328;27;20408;-50
2021/06/17 07:16:37;;;;;;;8.43;5.53;;;;;;;25.29;48.81;100425.09;5105972;27;20043;-48
2021/06/17 07:19:06;;;;;;;6.57;5.40;;;;;;;25.35;48.09;100430.03;5084996;27;20035;-50
2021/06/17 07:21:31;;;;;;;8.80;5.72;;;;;;;25.22;48.31;100426.50;5084704;27;20434;-49
2021/06/17 07:23:58;;;;;;;8.25;5.50;;;;;;;25.39;47.19;100423.50;5074344;27;20043;-50
2021/06/17 07:26:27;;;;;;;7.30;5.30;;;;;;;25.62;47.38;100421.00;5087095;27;20134;-48
2021/06/17 07:28:55;;;;;;;6.55;5.78;;;;;;;25.26;48.47;100420.81;5105801;27;20051;-51
2021/06/17 07:31:21;;;;;;;6.57;5.15;;;;;;;25.37;48.38;100427.28;5107512;27;20426;-48
2021/06/17 07:33:46;;;;;;;7.55;5.90;;;;;;;25.47;47.76;100425.63;5106588;27;20027;-48
2021/06/17 07:36:13;;;;;;;8.98;5.53;;;;;;;25.73;47.14;100423.75;5112878;27;20046;-48
2021/06/17 07:38:39;;;;;;;5.72;5.15;;;;;;;25.87;46.32;100424.59;5110305;27;20258;-48
2021/06/17 07:41:05;;;;;;;6.40;5.80;;;;;;;26.16;45.50;100423.31;5109600;27;20027;-48
2021/06/17 07:43:32;;;;;;;9.75;5.30;;;;;;;26.09;45.78;100423.91;5111598;27;20431;-50
2021/06/17 07:45:58;;;;;;;6.88;5.28;;;;;;;26.40;44.51;100433.16;5101108;27;20055;-49
2021/06/17 07:48:26;;;;;;;6.47;5.78;;;;;;;26.57;44.18;100433.72;5108779;27;20566;-48
2021/06/17 07:50:52;;;;;;;7.13;5.68;;;;;;;26.58;44.55;100432.75;5125608;27;20046;-49
2021/06/17 07:53:18;;;;;;;7.78;5.40;;;;;;;26.81;44.73;100414.94;5113997;27;20050;-48
2021/06/17 07:55:44;;;;;;;7.75;5.60;;;;;;;27.09;43.84;100397.53;5111829;27;20040;-48
2021/06/17 07:58:11;;;;;;;6.78;5.70;;;;;;;27.17;41.87;100397.78;5107159;27;20391;-48
2021/06/17 08:00:37;;;;;;;8.75;5.57;;;;;;;27.06;44.66;100408.53;5077443;27;20479;-49
2021/06/17 08:03:04;;;;;;;6.80;5.47;;;;;;;26.92;44.67;100423.00;5103292;27;20612;-50
2021/06/17 08:05:29;;;;;;;7.25;5.63;;;;;;;26.42;45.54;100415.16;5105420;27;20042;-49
2021/06/17 08:07:55;;;;;;;7.38;5.57;;;;;;;27.01;43.51;100394.59;5097502;27;20526;-49
2021/06/17 08:10:21;;;;;;;10.10;6.00;;;;;;;27.00;44.81;100390.25;5105695;27;20711;-50
2021/06/17 08:12:47;;;;;;;7.15;5.63;;;;;;;26.48;45.77;100397.75;5109218;27;20027;-48
2021/06/17 08:15:13;;;;;;;6.78;5.57;;;;;;;26.72;46.16;100407.59;5110738;27;20492;-47
2021/06/17 08:17:38;;;;;;;7.85;5.45;;;;;;;26.56;46.08;100408.75;5110852;27;20027;-48
2021/06/17 08:20:05;;;;;;;6.85;5.20;;;;;;;26.83;44.70;100402.25;5096166;27;20039;-48
2021/06/17 08:22:31;;;;;;;7.57;5.90;;;;;;;27.39;42.72;100385.41;5116202;27;20030;-47
2021/06/17 08:24:57;;;;;;;8.20;5.70;;;;;;;27.04;45.16;100386.31;5126473;27;20082;-48
2021/06/17 08:27:22;;;;;;;7.28;5.78;;;;;;;27.45;44.49;100392.94;5112510;27;20034;-53
2021/06/17 08:29:48;;;;;;;6.18;5.38;;;;;;;27.28;43.77;100388.06;5128320;27;20043;-48
2021/06/17 08:32:14;;;;;;;6.28;5.68;;;;;;;27.30;46.01;100388.78;5125881;27;20041;-52
2021/06/17 08:34:40;;;;;;;9.23;5.88;;;;;;;27.39;44.34;100398.81;5113468;27;20087;-48
2021/06/17 08:37:06;;;;;;;6.18;5.57;;;;;;;27.62;42.90;100405.03;5110565;27;20034;-49
2021/06/17 08:39:32;;;;;;;7.72;5.85;;;;;;;27.73;42.13;100414.88;5111248;27;20111;-49
2021/06/17 08:41:59;;;;;;;5.88;5.25;;;;;;;27.71;42.94;100414.16;5128925;27;20378;-50
2021/06/17 08:44:24;;;;;;;6.65;5.63;;;;;;;27.59;44.33;100410.63;5107997;27;20047;-49
2021/06/17 08:46:51;;;;;;;7.57;5.60;;;;;;;27.46;44.61;100393.81;5100904;27;20027;-49
2021/06/17 08:49:19;;;;;;;7.95;5.85;;;;;;;28.02;42.56;100393.75;5087274;27;20150;-48
2021/06/17 08:51:47;;;;;;;6.35;5.57;;;;;;;28.06;41.36;100402.38;5110369;27;20118;-48
2021/06/17 08:54:20;;;;;;;5.90;5.28;;;;;;;28.57;39.46;100395.44;5109413;27;20415;-48
2021/06/17 08:56:49;;;;;;;5.97;5.38;;;;;;;28.75;38.97;100394.91;5090789;27;20041;-49
2021/06/17 08:59:16;;;;;;;9.43;5.88;;;;;;;28.39;40.77;100397.84;5083995;27;20494;-49
2021/06/17 09:01:58;;;;;;;7.37;5.70;;;;;;;28.56;40.77;100390.19;5132787;27;20035;-49
2021/06/17 09:04:26;;;;;;;6.50;5.43;;;;;;;28.74;40.75;100390.50;5121387;27;20068;-51
2021/06/17 09:07:03;;;;;;;8.55;6.05;;;;;;;28.49;40.89;100388.00;5110783;27;20038;-49
2021/06/17 09:09:37;;;;;;;8.13;5.72;;;;;;;28.57;38.86;100390.06;5129347;27;20089;-48
2021/06/17 09:12:04;;;;;;;6.38;5.72;;;;;;;28.35;41.06;100382.97;5125421;27;20030;-49
2021/06/17 09:14:30;;;;;;;7.45;5.13;;;;;;;28.97;38.49;100364.28;5088774;27;20498;-50
2021/06/17 09:17:04;;;;;;;6.03;5.43;;;;;;;29.03;38.74;100372.66;5120810;27;20069;-48
2021/06/17 09:19:34;;;;;;;6.20;5.60;;;;;;;28.98;39.65;100385.69;5104777;27;20055;-51
2021/06/17 09:22:00;;;;;;;6.57;5.25;;;;;;;28.57;40.26;100383.84;5113187;27;20041;-51
2021/06/17 09:24:34;;;;;;;6.03;5.35;;;;;;;28.44;40.98;100379.50;5083376;27;20039;-50
2021/06/17 09:27:30;;;;;;;7.68;5.47;;;;;;;29.07;38.47;100383.19;5108847;27;20114;-49
2021/06/17 09:30:16;;;;;;;6.30;5.30;;;;;;;28.80;40.76;100385.44;5092277;27;20734;-50
2021/06/17 09:32:46;;;;;;;7.75;5.60;;;;;;;28.86;39.20;100384.91;5107627;27;20059;-49
2021/06/17 09:35:19;;;;;;;7.80;5.50;;;;;;;29.03;38.33;100390.66;5112922;27;20419;-50
2021/06/17 09:37:45;;;;;;;7.93;5.35;;;;;;;28.75;40.57;100384.97;5125965;27;20431;-51
2021/06/17 09:40:31;;;;;;;7.72;5.30;;;;;;;29.36;36.79;100388.72;5123885;27;20448;-49
2021/06/17 09:43:15;;;;;;;6.82;5.15;;;;;;;29.55;36.07;100380.69;5112810;27;20054;-49
2021/06/17 09:45:52;;;;;;;8.02;5.40;;;;;;;29.25;38.12;100373.50;5109834;27;20270;-49
2021/06/17 09:48:28;;;;;;;6.30;5.70;;;;;;;29.57;36.61;100377.03;5116203;27;20498;-49
2021/06/17 09:50:53;;;;;;;9.20;5.70;;;;;;;30.04;36.57;100380.78;5111828;27;20103;-51
2021/06/17 09:53:26;;;;;;;7.50;5.43;;;;;;;29.88;39.94;100378.66;5109862;27;20130;-49
2021/06/17 09:55:52;;;;;;;7.32;5.43;;;;;;;29.83;38.40;100372.81;5103101;27;20045;-50
2021/06/17 09:58:38;;;;;;;7.40;5.38;;;;;;;30.11;37.21;100369.47;5108472;27;20038;-50
2021/06/17 10:01:11;;;;;;;6.45;5.43;;;;;;;30.19;37.12;100366.91;5110036;27;20066;-49
2021/06/17 10:03:36;;;;;;;7.85;5.43;;;;;;;29.95;37.89;100372.72;5116459;27;20373;-51
2021/06/17 10:06:15;;;;;;;6.45;5.70;;;;;;;29.52;39.59;100359.44;5105889;27;20045;-50
2021/06/17 10:08:47;;;;;;;7.60;5.30;;;;;;;29.81;37.62;100361.34;5124356;27;20035;-49
2021/06/17 10:11:14;;;;;;;6.80;5.65;;;;;;;30.04;37.14;100361.09;5126836;27;20070;-48
2021/06/17 10:13:40;;;;;;;6.38;5.70;;;;;;;30.33;36.89;100352.16;5128119;27;20034;-50
2021/06/17 10:16:06;;;;;;;6.82;5.80;;;;;;;30.40;36.41;100355.97;5129244;27;20248;-50
2021/06/17 10:18:32;;;;;;;5.90;5.22;;;;;;;30.49;36.83;100352.44;5130174;27;20097;-49
2021/06/17 10:20:59;;;;;;;6.10;5.50;;;;;;;30.27;37.88;100341.91;5113288;27;20493;-51
2021/06/17 10:23:25;;;;;;;6.05;5.30;;;;;;;29.97;37.93;100333.84;5129479;27;20042;-49
2021/06/17 10:25:51;;;;;;;6.45;5.25;;;;;;;30.09;37.52;100333.72;5128622;27;20030;-49
2021/06/17 10:28:40;;;;;;;7.32;5.57;;;;;;;30.76;38.15;100326.53;5113271;27;20049;-53
2021/06/17 10:31:07;;;;;;;7.43;5.50;;;;;;;30.81;36.99;100316.16;5110098;27;20038;-50
2021/06/17 10:33:37;;;;;;;6.00;5.40;;;;;;;30.85;36.23;100320.25;5127927;27;20034;-50
2021/06/17 10:36:37;;;;;;;7.05;5.70;;;;;;;30.52;37.69;100316.25;5132788;27;20042;-51
2021/06/17 10:39:12;;;;;;;7.60;5.57;;;;;;;30.90;37.47;100311.72;5097964;27;20435;-53
2021/06/17 10:41:48;;;;;;;7.00;5.70;;;;;;;31.11;35.63;100307.97;5095398;27;20275;-50
2021/06/17 10:44:33;;;;;;;5.60;4.97;;;;;;;31.31;34.46;100314.13;5119883;27;20490;-49
2021/06/17 10:47:04;;;;;;;7.13;5.40;;;;;;;31.09;35.01;100304.59;5116367;27;20031;-49
2021/06/17 10:49:47;;;;;;;6.90;6.07;;;;;;;31.34;34.29;100300.31;5126231;27;20136;-50
2021/06/17 10:52:28;;;;;;;8.25;5.50;;;;;;;31.53;35.33;100307.44;5109643;27;20487;-51
2021/06/17 10:55:00;;;;;;;5.97;5.38;;;;;;;31.58;35.47;100311.44;5109685;27;20434;-50
2021/06/17 10:57:56;;;;;;;6.15;5.47;;;;;;;31.77;34.42;100314.97;5106093;27;20244;-50
2021/06/17 11:00:25;;;;;;;6.88;5.70;;;;;;;31.24;37.23;100309.31;5122196;27;20551;-49
2021/06/17 11:02:56;;;;;;;6.60;4.85;;;;;;;31.76;33.19;100307.88;5131267;27;20043;-49
2021/06/17 11:05:32;;;;;;;7.03;5.53;;;;;;;31.71;35.29;100316.44;5126631;27;20039;-50
2021/06/17 11:08:13;;;;;;;7.32;5.40;;;;;;;31.49;35.71;100311.47;5107466;27;20036;-49
2021/06/17 11:10:58;;;;;;;8.05;5.40;;;;;;;32.04;33.58;100316.75;5098749;27;20039;-51
2021/06/17 11:13:32;;;;;;;6.65;5.32;;;;;;;31.69;36.78;100314.88;5097240;27;20351;-49
2021/06/17 11:16:18;;;;;;;8.43;5.20;;;;;;;31.60;36.54;100321.19;5114657;27;20544;-50
2021/06/17 11:18:48;;;;;;;7.68;5.60;;;;;;;31.84;33.79;100315.22;5128323;27;20320;-49
2021/06/17 11:21:21;;;;;;;5.85;4.88;;;;;;;31.77;33.48;100314.97;5106505;27;20585;-50
2021/06/17 11:23:47;;;;;;;6.32;4.50;;;;;;;32.04;33.57;100316.75;5130325;27;20410;-52
2021/06/17 11:26:46;;;;;;;7.25;4.80;;;;;;;32.38;31.10;100318.72;5117369;27;20052;-50
2021/06/17 11:29:14;;;;;;;6.38;4.63;;;;;;;32.23;34.49;100315.75;5121501;27;20046;-49
2021/06/17 11:31:42;;;;;;;8.43;5.05;;;;;;;32.16;32.65;100324.66;5138453;27;20070;-49
2021/06/17 11:34:10;;;;;;;7.13;4.80;;;;;;;32.37;32.28;100321.59;5135365;27;20394;-49
2021/06/17 11:36:51;;;;;;;7.88;4.60;;;;;;;32.42;32.20;100321.97;5116764;27;20039;-50